Time;durP1;ratioP1;P1;durP2;ratioP2;P2;SDS_P1;SDS_P2;PMS_P1;PMS_P2;Temp;Humidity;BMP_temperature;BMP_pressure;BME280_temperature;BME280_humidity;BME280_pressure;Samples;Min_cycle;Max_cycle;Signal;HPM_P1;HPM_P2
2021/08/30 00:01:56;;;;;;;4.17;2.83;;;;;;;12.52;100.00;97107.89;1721517;83;21020;-75
2021/08/30 00:04:23;;;;;;;5.95;4.20;;;;;;;12.50;100.00;97105.30;1697647;84;21118;-75
2021/08/30 00:06:49;;;;;;;3.72;2.90;;;;;;;12.52;100.00;97107.42;1710362;83;21059;-76
2021/08/30 00:09:16;;;;;;;3.00;2.70;;;;;;;12.51;100.00;97116.80;1699448;83;21529;-76
2021/08/30 00:11:43;;;;;;;6.80;3.60;;;;;;;12.48;100.00;97119.16;1698547;83;21409;-76
2021/08/30 00:14:09;;;;;;;4.30;3.50;;;;;;;12.49;100.00;97118.66;1700580;84;21004;-76
2021/08/30 00:16:36;;;;;;;6.10;3.02;;;;;;;12.52;100.00;97123.83;1700907;83;21043;-76
2021/08/30 00:19:03;;;;;;;4.58;3.10;;;;;;;12.55;100.00;97123.69;1700969;84;21470;-76
2021/08/30 00:21:29;;;;;;;2.80;2.27;;;;;;;12.57;100.00;97126.27;1730899;83;21396;-76
2021/08/30 00:23:55;;;;;;;4.80;2.40;;;;;;;12.58;100.00;97125.33;1728145;83;21007;-76
2021/08/30 00:26:22;;;;;;;3.22;2.70;;;;;;;12.60;100.00;97128.30;1721184;83;21044;-75
2021/08/30 00:28:48;;;;;;;4.55;2.12;;;;;;;12.64;100.00;97127.66;1708378;83;20969;-75
2021/08/30 00:31:15;;;;;;;5.08;1.95;;;;;;;12.67;100.00;97129.67;1675048;86;21539;-75
2021/08/30 00:33:41;;;;;;;2.50;2.17;;;;;;;12.67;100.00;97122.19;1675130;84;21507;-76
2021/08/30 00:36:08;;;;;;;2.83;2.25;;;;;;;12.67;100.00;97118.20;1674926;86;21038;-76
2021/08/30 00:38:35;;;;;;;4.55;2.40;;;;;;;12.67;100.00;97116.39;1676003;85;21437;-76
2021/08/30 00:41:03;;;;;;;3.75;2.40;;;;;;;12.71;100.00;97119.73;1676858;85;21521;-76
2021/08/30 00:43:29;;;;;;;6.15;2.40;;;;;;;12.72;100.00;97120.61;1706642;84;21429;-76
2021/08/30 00:45:56;;;;;;;5.67;2.17;;;;;;;12.71;100.00;97125.55;1706783;84;21422;-76
2021/08/30 00:48:22;;;;;;;4.87;2.77;;;;;;;12.66;100.00;97127.09;1678048;84;21010;-76
2021/08/30 00:50:49;;;;;;;4.08;3.20;;;;;;;12.64;100.00;97135.63;1675259;86;21074;-75
2021/08/30 00:53:16;;;;;;;3.85;3.10;;;;;;;12.60;100.00;97137.59;1675260;86;21113;-76
2021/08/30 00:55:43;;;;;;;4.00;3.02;;;;;;;12.57;100.00;97136.91;1677348;84;21054;-75
2021/08/30 00:58:09;;;;;;;5.33;3.27;;;;;;;12.53;100.00;97135.72;1675286;86;21033;-75
2021/08/30 01:00:37;;;;;;;5.67;3.10;;;;;;;12.50;100.00;97137.19;1675191;86;21113;-75
2021/08/30 01:03:04;;;;;;;4.72;3.60;;;;;;;12.49;99.91;97134.61;1675263;86;21475;-75
2021/08/30 01:05:31;;;;;;;4.80;3.20;;;;;;;12.47;100.00;97134.72;1700780;84;21012;-76
2021/08/30 01:08:24;;;;;;;4.78;3.58;;;;;;;12.47;100.00;97131.19;1706619;83;21030;-75
2021/08/30 01:11:10;;;;;;;3.55;3.25;;;;;;;12.46;100.00;97125.00;1706698;84;21083;-76
2021/08/30 01:13:48;;;;;;;4.87;3.15;;;;;;;12.43;100.00;97125.63;1656273;85;21019;-76
2021/08/30 01:16:15;;;;;;;7.10;3.30;;;;;;;12.41;100.00;97117.73;1692067;85;21493;-76
2021/08/30 01:18:48;;;;;;;4.53;2.80;;;;;;;12.39;100.00;97120.49;1689556;85;21399;-76
2021/08/30 01:21:39;;;;;;;4.28;2.87;;;;;;;12.38;100.00;97121.41;1689776;85;21056;-76
2021/08/30 01:24:16;;;;;;;5.78;2.90;;;;;;;12.38;100.00;97125.39;1704330;82;21076;-75
2021/08/30 01:26:54;;;;;;;5.70;2.45;;;;;;;12.32;100.00;97125.71;1723533;83;21524;-75
2021/08/30 01:29:46;;;;;;;2.85;2.55;;;;;;;12.29;100.00;97129.84;1726448;83;21457;-76
2021/08/30 01:32:37;;;;;;;6.35;2.77;;;;;;;12.26;99.90;97129.53;1749593;82;21433;-76
2021/08/30 01:35:11;;;;;;;3.87;2.80;;;;;;;12.22;100.00;97121.80;1734737;81;21003;-76
2021/08/30 01:37:39;;;;;;;;;;;;;;;12.20;100.00;97121.03;1706272;84;21034;-75
2021/08/30 01:40:10;;;;;;;3.45;2.92;;;;;;;12.22;99.85;97117.36;1669658;86;20116;-76
2021/08/30 01:42:43;;;;;;;5.45;2.65;;;;;;;12.22;99.80;97126.66;1724845;82;21004;-76
2021/08/30 01:45:14;;;;;;;5.10;3.02;;;;;;;12.23;100.00;97121.73;1726608;82;21078;-76
2021/08/30 01:47:42;;;;;;;2.92;2.62;;;;;;;12.23;100.00;97127.50;1753876;81;21048;-76
2021/08/30 01:50:11;;;;;;;4.25;2.87;;;;;;;12.26;100.00;97120.23;1753892;82;20964;-76
2021/08/30 01:52:43;;;;;;;2.67;2.30;;;;;;;12.34;100.00;97122.98;1733589;83;20960;-76
2021/08/30 01:55:27;;;;;;;5.28;2.55;;;;;;;12.38;100.00;97123.22;1701005;84;21024;-76
2021/08/30 02:03:29;;;;;;;4.70;3.25;;;;;;;12.50;100.00;97129.22;1701179;84;21056;-76
2021/08/30 02:06:03;;;;;;;4.15;2.70;;;;;;;12.56;100.00;97132.04;1723857;83;21003;-76
2021/08/30 02:08:33;;;;;;;3.27;2.85;;;;;;;12.59;100.00;97134.55;1757264;82;21000;-76
2021/08/30 02:11:04;;;;;;;3.33;2.40;;;;;;;12.63;100.00;97125.94;1736023;83;21014;-76
2021/08/30 02:13:31;;;;;;;6.40;3.00;;;;;;;12.67;100.00;97132.83;1746957;82;21485;-76
2021/08/30 02:16:00;;;;;;;3.80;2.65;;;;;;;12.68;100.00;97127.89;1700737;84;21394;-75
2021/08/30 02:18:44;;;;;;;4.83;2.90;;;;;;;12.69;100.00;97121.63;1753789;82;20995;-76
2021/08/30 02:21:31;;;;;;;6.22;2.70;;;;;;;12.72;100.00;97129.91;1736046;83;20971;-75
2021/08/30 02:24:15;;;;;;;4.25;2.85;;;;;;;12.74;100.00;97130.22;1757074;82;21032;-76
2021/08/30 02:27:28;;;;;;;6.30;3.23;;;;;;;12.78;100.00;97130.45;1736187;80;21019;-76
2021/08/30 02:30:23;;;;;;;5.90;3.00;;;;;;;12.78;100.00;97129.58;1740962;82;21019;-76
2021/08/30 02:32:53;;;;;;;4.70;3.10;;;;;;;12.77;99.74;97123.88;1721053;83;21056;-75
2021/08/30 02:35:24;;;;;;;5.75;2.60;;;;;;;12.74;99.66;97126.72;1720694;83;21028;-76
2021/08/30 02:37:53;;;;;;;3.33;2.30;;;;;;;12.71;99.08;97119.73;1732450;82;20944;-76
2021/08/30 02:40:24;;;;;;;2.80;2.58;;;;;;;12.66;99.31;97124.44;1754100;82;21039;-76
2021/08/30 02:42:52;;;;;;;2.98;2.40;;;;;;;12.61;99.71;97117.17;1753858;82;21012;-76
2021/08/30 02:45:19;;;;;;;2.58;2.37;;;;;;;12.55;99.48;97111.73;1753908;82;21425;-76
2021/08/30 02:47:48;;;;;;;6.42;2.95;;;;;;;12.50;99.08;97113.77;1744094;82;21444;-76
2021/08/30 02:50:15;;;;;;;3.37;3.02;;;;;;;12.45;99.67;97104.69;1720845;83;21452;-76
2021/08/30 02:52:44;;;;;;;6.25;3.22;;;;;;;12.40;99.49;97111.58;1720884;83;21469;-76
2021/08/30 02:55:12;;;;;;;3.10;2.80;;;;;;;12.37;99.54;97117.52;1720900;83;21465;-76
2021/08/30 02:57:40;;;;;;;5.95;3.05;;;;;;;12.35;99.71;97119.38;1720807;83;20989;-76
2021/08/30 03:00:09;;;;;;;4.45;3.10;;;;;;;12.33;99.54;97122.59;1734114;82;21008;-76
2021/08/30 03:02:37;;;;;;;7.47;3.47;;;;;;;12.30;99.23;97117.43;1719282;83;21032;-75
2021/08/30 03:05:05;;;;;;;7.00;3.55;;;;;;;12.25;99.16;97118.52;1719272;83;21020;-76
2021/08/30 03:07:32;;;;;;;4.35;3.20;;;;;;;12.21;98.94;97118.77;1719324;83;21036;-75
2021/08/30 03:10:00;;;;;;;5.42;3.25;;;;;;;12.20;99.56;97122.36;1690892;83;21040;-76
2021/08/30 03:12:29;;;;;;;4.78;3.20;;;;;;;12.20;99.77;97117.89;1742774;82;21109;-75
2021/08/30 03:15:01;;;;;;;3.47;3.10;;;;;;;12.20;99.52;97118.38;1731992;81;21024;-76
2021/08/30 03:17:29;;;;;;;5.28;3.60;;;;;;;12.20;99.41;97119.22;1719138;83;21028;-76
2021/08/30 03:19:57;;;;;;;5.00;3.60;;;;;;;12.20;99.37;97125.86;1719342;83;21000;-76
2021/08/30 03:22:25;;;;;;;5.45;3.72;;;;;;;12.18;99.21;97129.53;1719219;83;21004;-76
2021/08/30 03:24:53;;;;;;;5.72;3.92;;;;;;;12.16;99.56;97132.75;1752789;82;20976;-76
2021/08/30 03:27:20;;;;;;;3.72;3.33;;;;;;;12.15;99.92;97135.86;1757200;81;20981;-76
2021/08/30 03:29:49;;;;;;;6.05;3.58;;;;;;;12.17;99.96;97138.44;1756625;81;21012;-76
2021/08/30 03:32:17;;;;;;;7.58;3.98;;;;;;;12.17;100.00;97141.97;1757040;82;21036;-75
2021/08/30 03:34:45;;;;;;;5.30;3.95;;;;;;;12.17;100.00;97146.41;1755581;82;20964;-76
2021/08/30 03:37:12;;;;;;;3.92;3.55;;;;;;;12.12;100.00;97150.16;1726477;82;20956;-76
2021/08/30 03:39:44;;;;;;;3.87;3.40;;;;;;;12.14;99.63;97152.25;1726091;83;21023;-76
2021/08/30 03:42:11;;;;;;;5.35;3.45;;;;;;;12.17;99.83;97145.95;1726307;83;20991;-76
2021/08/30 03:44:39;;;;;;;5.10;3.08;;;;;;;12.20;100.00;97150.25;1726263;82;21457;-75
2021/08/30 03:47:07;;;;;;;3.25;2.95;;;;;;;12.25;99.84;97149.55;1734212;82;21015;-76
2021/08/30 03:49:36;;;;;;;3.90;2.95;;;;;;;12.29;100.00;97148.44;1757059;82;21012;-77
2021/08/30 03:52:06;;;;;;;6.78;2.87;;;;;;;12.34;100.00;97148.22;1757206;82;21044;-77
2021/08/30 03:54:32;;;;;;;3.90;2.55;;;;;;;12.39;100.00;97151.50;1757324;82;21069;-76
2021/08/30 03:57:00;;;;;;;6.00;2.90;;;;;;;12.43;99.90;97152.20;1757078;82;20969;-76
2021/08/30 03:59:33;;;;;;;3.45;2.70;;;;;;;12.46;100.00;97147.58;1743903;80;21075;-76
2021/08/30 04:02:00;;;;;;;4.80;2.60;;;;;;;12.52;99.95;97153.06;1726431;83;21055;-76
2021/08/30 04:04:27;;;;;;;3.47;2.92;;;;;;;12.53;99.75;97154.78;1726346;82;21064;-76
2021/08/30 04:06:55;;;;;;;3.30;2.77;;;;;;;12.59;100.00;97155.81;1726153;83;21012;-75
2021/08/30 04:09:22;;;;;;;3.75;2.80;;;;;;;12.68;100.00;97170.42;1726252;82;21052;-76
2021/08/30 04:11:50;;;;;;;6.17;3.15;;;;;;;12.72;100.00;97173.78;1743547;82;20980;-76
2021/08/30 04:14:19;;;;;;;4.72;2.70;;;;;;;12.73;99.52;97175.03;1757026;82;21004;-76
2021/08/30 04:16:47;;;;;;;4.47;3.08;;;;;;;12.69;99.08;97181.44;1747800;81;21068;-76
2021/08/30 04:19:14;;;;;;;3.87;2.80;;;;;;;12.66;98.55;97179.80;1725881;83;21012;-76
2021/08/30 04:21:41;;;;;;;5.37;3.00;;;;;;;12.66;99.22;97182.46;1726185;83;20984;-76
2021/08/30 04:24:07;;;;;;;3.60;2.87;;;;;;;12.65;99.29;97185.19;1744633;82;20969;-76
2021/08/30 04:26:35;;;;;;;4.80;2.90;;;;;;;12.64;98.65;97193.66;1740107;81;20949;-77
2021/08/30 04:29:02;;;;;;;3.00;2.60;;;;;;;12.62;98.52;97194.19;1753803;82;21001;-76
2021/08/30 04:31:28;;;;;;;3.67;2.58;;;;;;;12.62;98.72;97199.98;1753813;81;21023;-76
2021/08/30 04:33:55;;;;;;;4.35;2.70;;;;;;;12.62;98.97;97193.34;1753901;81;21509;-76
2021/08/30 04:36:21;;;;;;;4.05;2.80;;;;;;;12.63;99.00;97183.94;1727236;82;20995;-76
2021/08/30 04:38:48;;;;;;;3.20;2.60;;;;;;;12.65;98.72;97186.52;1721089;83;21011;-76
2021/08/30 04:41:15;;;;;;;3.65;2.65;;;;;;;12.65;98.84;97188.72;1722019;83;21026;-76
2021/08/30 04:43:44;;;;;;;2.75;2.52;;;;;;;12.65;99.06;97190.51;1719226;83;21012;-77
2021/08/30 04:46:10;;;;;;;2.80;2.60;;;;;;;12.66;98.71;97184.25;1719282;83;21031;-77
2021/08/30 04:48:37;;;;;;;3.08;2.70;;;;;;;12.63;98.04;97185.27;1752495;82;20992;-76
2021/08/30 04:51:04;;;;;;;3.42;2.80;;;;;;;12.63;98.21;97186.59;1753870;82;20988;-75
2021/08/30 04:53:30;;;;;;;4.28;3.00;;;;;;;12.59;97.79;97189.05;1753841;82;21402;-76
2021/08/30 04:55:57;;;;;;;5.28;3.35;;;;;;;12.57;98.38;97179.43;1735846;82;21020;-76
2021/08/30 04:58:23;;;;;;;7.15;3.40;;;;;;;12.54;98.61;97171.98;1720843;83;21012;-76
2021/08/30 05:00:49;;;;;;;3.67;3.20;;;;;;;12.56;98.72;97171.04;1720863;83;22182;-76
2021/08/30 05:03:16;;;;;;;3.67;3.25;;;;;;;12.58;98.97;97170.52;1720670;83;21016;-76
2021/08/30 05:05:43;;;;;;;7.12;4.00;;;;;;;12.60;99.15;97164.17;1734671;82;21012;-76
2021/08/30 05:08:09;;;;;;;4.40;3.95;;;;;;;12.61;99.24;97164.56;1753768;82;20957;-76
2021/08/30 05:10:37;;;;;;;4.20;3.80;;;;;;;12.61;99.30;97176.98;1753736;82;21426;-76
2021/08/30 05:13:04;;;;;;;4.90;3.58;;;;;;;12.60;99.35;97180.13;1753749;81;21453;-76
2021/08/30 05:15:30;;;;;;;3.80;3.30;;;;;;;12.63;99.34;97181.77;1753705;82;20981;-76
2021/08/30 05:17:57;;;;;;;6.15;2.60;;;;;;;12.61;98.07;97184.50;1734967;82;21004;-76
2021/08/30 05:20:24;;;;;;;2.98;2.65;;;;;;;12.56;97.21;97188.31;1720880;83;21004;-76
2021/08/30 05:22:51;;;;;;;15.53;3.80;;;;;;;12.46;96.85;97194.09;1720695;83;21056;-76
2021/08/30 05:25:18;;;;;;;3.70;2.67;;;;;;;12.40;96.62;97191.75;1725474;82;21091;-76
2021/08/30 05:27:48;;;;;;;3.22;2.50;;;;;;;12.34;96.73;97189.41;1756988;81;21418;-76
2021/08/30 05:30:13;;;;;;;5.10;2.45;;;;;;;12.32;96.65;97200.10;1756676;82;20996;-76
2021/08/30 05:32:39;;;;;;;3.40;2.80;;;;;;;12.28;96.73;97196.75;1756906;82;21059;-76
2021/08/30 05:35:06;;;;;;;3.08;2.58;;;;;;;12.31;97.10;97208.14;1755552;82;21509;-76
2021/08/30 05:37:33;;;;;;;7.83;2.92;;;;;;;12.34;97.25;97198.70;1726292;83;21020;-76
2021/08/30 05:39:59;;;;;;;3.55;2.60;;;;;;;12.39;97.23;97202.86;1726273;83;21004;-76
2021/08/30 05:42:26;;;;;;;3.45;2.83;;;;;;;12.48;97.53;97200.20;1726448;83;21510;-76
2021/08/30 05:44:52;;;;;;;7.58;2.87;;;;;;;12.60;97.71;97200.06;1726259;83;20945;-76
2021/08/30 05:47:19;;;;;;;6.37;2.80;;;;;;;12.67;97.46;97199.28;1726720;82;21012;-76
2021/08/30 05:49:45;;;;;;;3.83;2.50;;;;;;;12.73;97.31;97205.61;1757137;82;21000;-76
2021/08/30 05:52:13;;;;;;;3.67;2.33;;;;;;;12.83;97.51;97205.14;1757060;82;21001;-76
2021/08/30 05:54:40;;;;;;;4.65;2.12;;;;;;;12.92;94.68;97207.33;1757046;81;20996;-76
2021/08/30 05:57:07;;;;;;;8.75;2.20;;;;;;;13.03;93.73;97206.74;1738429;82;20996;-76
2021/08/30 05:59:36;;;;;;;3.75;1.90;;;;;;;13.08;92.31;97211.35;1726309;83;21436;-76
2021/08/30 06:02:03;;;;;;;4.40;2.30;;;;;;;13.16;93.44;97205.66;1726350;83;21020;-76
2021/08/30 06:04:30;;;;;;;2.12;1.95;;;;;;;13.28;94.47;97197.46;1726347;83;21168;-76
2021/08/30 06:06:56;;;;;;;5.17;2.50;;;;;;;13.37;94.53;97190.31;1742002;82;21021;-76
2021/08/30 06:09:23;;;;;;;3.83;2.45;;;;;;;13.51;92.82;97195.41;1757104;82;21121;-76
2021/08/30 06:11:51;;;;;;;2.67;2.47;;;;;;;13.66;94.67;97189.73;1750349;82;20992;-76
2021/08/30 06:14:17;;;;;;;4.45;2.50;;;;;;;13.76;94.65;97198.92;1751367;82;21012;-76
2021/08/30 06:16:44;;;;;;;3.30;2.22;;;;;;;13.84;94.45;97199.82;1757017;82;21422;-76
2021/08/30 06:19:10;;;;;;;2.47;2.05;;;;;;;13.89;94.81;97196.42;1739640;82;21024;-79
2021/08/30 06:21:37;;;;;;;5.92;2.62;;;;;;;13.91;94.14;97185.20;1728977;82;21426;-77
2021/08/30 06:24:04;;;;;;;4.30;2.08;;;;;;;13.96;94.96;97195.13;1725878;82;21032;-79
2021/08/30 06:26:32;;;;;;;4.22;3.05;;;;;;;14.01;92.23;97192.22;1718037;82;21465;-75
2021/08/30 06:29:00;;;;;;;5.03;2.83;;;;;;;14.03;92.31;97196.97;1708720;83;21016;-75
2021/08/30 06:31:26;;;;;;;15.20;10.18;;;;;;;14.03;92.76;97188.98;1712138;83;21060;-76
2021/08/30 06:33:53;;;;;;;6.58;3.37;;;;;;;14.03;93.52;97195.64;1716578;83;21541;-77
2021/08/30 06:36:20;;;;;;;4.03;2.98;;;;;;;14.04;93.50;97203.17;1716075;82;21054;-76
2021/08/30 06:38:46;;;;;;;3.50;3.17;;;;;;;14.02;91.99;97206.38;1678343;85;21100;-76
2021/08/30 06:41:13;;;;;;;3.02;2.50;;;;;;;14.02;93.50;97215.70;1677136;85;21051;-76
2021/08/30 06:43:39;;;;;;;4.12;3.25;;;;;;;14.02;93.65;97218.36;1707495;83;21044;-76
2021/08/30 06:46:06;;;;;;;57.08;40.43;;;;;;;14.04;94.38;97223.16;1716638;82;21673;-77
2021/08/30 06:48:33;;;;;;;93.30;68.20;;;;;;;14.08;94.73;97218.88;1715907;83;21124;-76
2021/08/30 06:51:01;;;;;;;15.75;10.75;;;;;;;14.15;94.84;97223.39;1714787;82;21462;-77
2021/08/30 06:53:28;;;;;;;7.55;5.33;;;;;;;14.23;94.44;97224.29;1714368;83;21014;-78
2021/08/30 06:55:55;;;;;;;4.58;2.42;;;;;;;14.29;94.17;97230.62;1724189;83;21491;-75
2021/08/30 06:58:21;;;;;;;2.90;2.47;;;;;;;14.35;91.50;97225.40;1718793;83;21026;-76
2021/08/30 07:00:48;;;;;;;4.45;2.65;;;;;;;14.39;90.93;97220.28;1700720;82;20977;-77
2021/08/30 07:03:15;;;;;;;4.67;3.10;;;;;;;14.46;92.02;97208.80;1691407;83;21020;-77
2021/08/30 07:05:41;;;;;;;7.00;3.08;;;;;;;14.51;92.68;97215.59;1709207;83;21478;-77
2021/08/30 07:08:07;;;;;;;5.42;3.50;;;;;;;14.56;92.97;97215.30;1712086;83;20993;-76
2021/08/30 07:10:34;;;;;;;5.65;3.52;;;;;;;14.59;92.69;97224.93;1698026;84;21028;-76
2021/08/30 07:13:00;;;;;;;4.72;3.08;;;;;;;14.64;92.87;97235.72;1681721;84;21482;-76
2021/08/30 07:15:27;;;;;;;4.00;3.10;;;;;;;14.70;92.93;97231.81;1696691;84;21040;-76
2021/08/30 07:17:54;;;;;;;5.00;3.52;;;;;;;14.75;92.15;97231.09;1718798;83;20978;-76
2021/08/30 07:20:21;;;;;;;5.70;3.37;;;;;;;14.75;92.24;97227.09;1715513;83;21462;-77
2021/08/30 07:22:47;;;;;;;4.40;3.60;;;;;;;14.77;91.93;97229.22;1703454;83;21054;-76
2021/08/30 07:25:14;;;;;;;5.28;2.87;;;;;;;14.77;91.44;97231.02;1708735;83;21021;-76
2021/08/30 07:27:40;;;;;;;7.55;3.85;;;;;;;14.81;92.29;97235.22;1708678;83;21126;-77
2021/08/30 07:30:09;;;;;;;27.00;18.48;;;;;;;14.88;90.87;97239.27;1708697;84;21026;-77
2021/08/30 07:32:35;;;;;;;5.95;4.72;;;;;;;;;;1710363;82;21047;-76
2021/08/30 07:35:01;;;;;;;5.90;4.53;;;;;;;15.04;91.64;97225.00;1721664;82;20999;-76
2021/08/30 07:37:27;;;;;;;7.70;6.25;;;;;;;15.15;91.47;97227.87;1708603;84;21016;-76
2021/08/30 07:39:54;;;;;;;7.47;6.12;;;;;;;15.28;90.62;97231.14;1718342;82;21022;-75
2021/08/30 07:42:20;;;;;;;12.63;7.15;;;;;;;15.39;91.78;97226.45;1723160;82;21438;-76
2021/08/30 07:44:47;;;;;;;10.68;7.80;;;;;;;15.51;91.50;97232.38;1718841;82;20983;-77
2021/08/30 07:47:13;;;;;;;9.85;7.65;;;;;;;15.59;90.14;97229.23;1728435;82;20983;-77
2021/08/30 07:49:39;;;;;;;8.63;7.15;;;;;;;15.59;90.17;97231.91;1725057;82;20996;-76
2021/08/30 07:52:06;;;;;;;7.47;6.62;;;;;;;15.63;89.49;97240.11;1730627;82;20971;-77
2021/08/30 07:54:33;;;;;;;11.53;6.40;;;;;;;15.65;90.01;97244.87;1693677;84;21009;-76
2021/08/30 07:57:00;;;;;;;8.50;6.58;;;;;;;15.71;89.20;97244.47;1720270;81;21018;-76
2021/08/30 07:59:26;;;;;;;6.50;5.78;;;;;;;15.78;90.01;97243.61;1737492;81;21050;-77
2021/08/30 08:01:53;;;;;;;8.33;5.33;;;;;;;15.87;89.74;97244.87;1745619;81;22264;-76
2021/08/30 08:04:20;;;;;;;9.65;5.78;;;;;;;16.00;89.83;97250.31;1747135;81;20966;-76
2021/08/30 08:06:47;;;;;;;7.22;5.37;;;;;;;16.13;87.87;97254.39;1737420;82;21045;-76
2021/08/30 08:09:14;;;;;;;7.50;4.90;;;;;;;16.25;89.15;97252.75;1737946;82;21042;-77
2021/08/30 08:11:40;;;;;;;6.97;5.58;;;;;;;16.33;87.83;97254.42;1737458;81;21060;-74
2021/08/30 08:14:07;;;;;;;6.60;4.85;;;;;;;16.41;88.07;97258.43;1729575;82;20989;-74
2021/08/30 08:16:33;;;;;;;5.87;4.58;;;;;;;16.46;87.77;97255.84;1724422;83;20996;-74
2021/08/30 08:19:00;;;;;;;5.62;4.40;;;;;;;16.52;83.93;97255.90;1724199;83;21068;-75
2021/08/30 08:21:26;;;;;;;5.47;4.45;;;;;;;16.60;84.56;97254.05;1740090;81;20979;-74
2021/08/30 08:23:53;;;;;;;8.23;5.10;;;;;;;16.75;85.77;97251.72;1744778;81;20995;-76
2021/08/30 08:26:19;;;;;;;8.55;4.58;;;;;;;16.89;86.35;97249.44;1735926;82;21107;-76
2021/08/30 08:28:46;;;;;;;4.95;4.50;;;;;;;16.98;84.04;97249.79;1699598;84;21024;-75
2021/08/30 08:31:12;;;;;;;5.62;4.42;;;;;;;17.05;85.72;97250.23;1724762;83;20983;-74
2021/08/30 08:33:39;;;;;;;5.72;4.90;;;;;;;17.14;83.25;97258.98;1700174;84;21004;-75
2021/08/30 08:36:06;;;;;;;4.70;4.22;;;;;;;17.09;82.49;97255.30;1725958;83;21055;-75
2021/08/30 08:38:32;;;;;;;4.75;4.25;;;;;;;17.06;83.40;97251.47;1700200;84;21026;-74
2021/08/30 08:40:59;;;;;;;6.33;4.20;;;;;;;17.09;82.89;97247.73;1732802;82;21401;-74
2021/08/30 08:43:28;;;;;;;5.08;4.10;;;;;;;17.06;80.95;97251.97;1696581;83;21098;-74
2021/08/30 08:45:55;;;;;;;8.93;4.55;;;;;;;16.96;79.65;97257.05;1678593;84;21469;-75
2021/08/30 08:48:23;;;;;;;5.25;4.08;;;;;;;17.01;82.68;97254.45;1697918;84;21435;-74
2021/08/30 08:50:50;;;;;;;6.05;3.83;;;;;;;17.12;82.11;97254.22;1685153;84;21007;-75
2021/08/30 08:53:18;;;;;;;4.55;3.77;;;;;;;17.24;83.15;97252.53;1713413;81;21106;-75
2021/08/30 08:55:45;;;;;;;4.62;3.50;;;;;;;17.34;82.45;97250.05;1756291;82;21122;-76
2021/08/30 08:58:15;;;;;;;4.78;3.98;;;;;;;17.46;80.57;97246.54;1735290;83;21448;-75
2021/08/30 09:00:45;;;;;;;37.95;26.85;;;;;;;17.53;80.54;97246.47;1752107;82;21024;-76
2021/08/30 09:03:19;;;;;;;6.00;4.67;;;;;;;17.67;81.50;97243.30;1699704;84;21017;-76
2021/08/30 09:05:46;;;;;;;7.97;4.28;;;;;;;17.88;80.96;97241.39;1725882;82;21465;-76
2021/08/30 09:08:33;;;;;;;5.45;3.55;;;;;;;18.12;81.18;97234.80;1700249;84;21455;-74
2021/08/30 09:11:00;;;;;;;3.70;3.40;;;;;;;18.29;80.11;97232.22;1754249;82;21036;-74
2021/08/30 09:13:30;;;;;;;4.17;3.12;;;;;;;18.43;79.45;97231.19;1731892;81;21056;-75
2021/08/30 09:16:00;;;;;;;3.85;3.08;;;;;;;18.62;79.25;97240.55;1718150;82;21009;-75
2021/08/30 09:18:31;;;;;;;3.58;2.92;;;;;;;18.70;73.45;97239.50;1719543;82;21007;-75
2021/08/30 09:21:14;;;;;;;6.37;3.33;;;;;;;18.81;75.29;97237.83;1697862;84;21009;-75
2021/08/30 09:23:43;;;;;;;2.83;2.50;;;;;;;18.91;75.83;97235.30;1699225;84;21012;-75
2021/08/30 09:26:19;;;;;;;5.15;3.00;;;;;;;19.12;75.97;97239.55;1698491;84;21145;-75
2021/08/30 09:28:55;;;;;;;4.50;3.00;;;;;;;19.25;75.74;97236.77;1739273;82;21032;-75
2021/08/30 09:31:22;;;;;;;3.80;2.80;;;;;;;19.31;74.09;97238.12;1720979;83;20963;-75
2021/08/30 09:33:52;;;;;;;4.12;2.50;;;;;;;19.43;74.56;97245.72;1725756;82;21004;-75
2021/08/30 09:36:20;;;;;;;3.47;2.65;;;;;;;19.46;72.43;97237.40;1700175;84;21405;-75
2021/08/30 09:38:55;;;;;;;3.05;2.70;;;;;;;19.41;73.39;97242.28;1733208;82;21000;-74
2021/08/30 09:41:22;;;;;;;8.48;4.87;;;;;;;19.38;69.49;97240.22;1693146;83;21043;-75
2021/08/30 09:44:00;;;;;;;2.55;2.30;;;;;;;19.33;70.12;97240.20;1683923;83;20972;-75
2021/08/30 09:46:30;;;;;;;2.83;2.40;;;;;;;19.35;69.99;97237.75;1678271;85;20984;-76
2021/08/30 09:49:06;;;;;;;3.72;2.30;;;;;;;19.35;70.16;97235.06;1677881;84;20973;-75
2021/08/30 09:51:38;;;;;;;2.30;2.10;;;;;;;19.34;70.64;97235.18;1738640;82;21434;-75
2021/08/30 09:54:06;;;;;;;2.37;2.00;;;;;;;19.29;67.20;97235.55;1716451;82;21481;-75
2021/08/30 09:56:38;;;;;;;2.80;2.50;;;;;;;19.36;67.86;97233.25;1734410;83;21054;-75
2021/08/30 09:59:09;;;;;;;2.80;2.47;;;;;;;19.42;67.45;97238.13;1690913;84;21573;-76
2021/08/30 10:01:41;;;;;;;3.62;2.42;;;;;;;19.55;65.02;97234.50;1684082;84;21044;-76
2021/08/30 10:04:10;;;;;;;3.80;2.40;;;;;;;19.71;67.87;97233.64;1700636;84;20972;-75
2021/08/30 10:06:39;;;;;;;2.77;2.52;;;;;;;19.89;64.78;97232.66;1700024;83;21028;-76
2021/08/30 10:09:13;;;;;;;4.12;2.45;;;;;;;19.84;60.48;97234.02;1691634;85;21459;-76
2021/08/30 10:11:41;;;;;;;3.75;2.55;;;;;;;19.73;63.40;97234.87;1696890;84;21034;-76
2021/08/30 10:14:14;;;;;;;5.20;2.30;;;;;;;19.79;66.43;97231.20;1699423;83;20970;-75
2021/08/30 10:16:40;;;;;;;3.62;1.92;;;;;;;19.75;64.63;97230.21;1712402;83;21493;-75
2021/08/30 10:19:10;;;;;;;2.40;2.20;;;;;;;19.60;60.01;97234.48;1719065;83;21019;-74
2021/08/30 10:21:46;;;;;;;2.40;2.20;;;;;;;19.61;65.56;97235.35;1755732;82;21517;-74
2021/08/30 10:24:15;;;;;;;6.87;2.25;;;;;;;19.63;64.04;97235.59;1696600;84;21049;-74
2021/08/30 10:26:46;;;;;;;3.40;2.40;;;;;;;19.67;62.03;97235.36;1726923;82;21011;-75
2021/08/30 10:29:14;;;;;;;2.33;2.10;;;;;;;19.72;63.81;97235.34;1699808;84;21016;-74
2021/08/30 10:31:53;;;;;;;2.45;1.82;;;;;;;19.74;64.68;97233.88;1737088;82;21043;-74
2021/08/30 10:34:35;;;;;;;2.37;1.90;;;;;;;19.88;64.99;97236.33;1719909;83;21008;-75
2021/08/30 10:37:04;;;;;;;2.17;1.98;;;;;;;20.15;64.47;97224.37;1724836;83;20996;-74
2021/08/30 10:39:40;;;;;;;4.00;2.20;;;;;;;20.46;64.55;97229.55;1696408;84;21103;-74
2021/08/30 10:42:15;;;;;;;2.85;1.82;;;;;;;20.64;60.52;97234.73;1743212;82;21555;-74
2021/08/30 10:45:04;;;;;;;2.22;1.95;;;;;;;20.64;62.63;97232.04;1688018;83;20976;-76
2021/08/30 10:47:37;;;;;;;2.62;2.17;;;;;;;20.65;63.90;97233.77;1700310;84;20984;-75
2021/08/30 10:50:09;;;;;;;3.80;1.80;;;;;;;20.73;64.15;97229.57;1705688;84;21048;-75
2021/08/30 10:52:40;;;;;;;2.10;1.60;;;;;;;20.64;54.74;97234.73;1704958;84;21355;-79
2021/08/30 10:55:19;;;;;;;5.58;4.05;;;;;;;20.81;52.44;97232.48;1705693;84;21018;-80
2021/08/30 10:57:51;;;;;;;3.75;2.00;;;;;;;20.77;59.85;97234.59;1704491;83;21023;-78
2021/08/30 11:00:31;;;;;;;3.02;2.08;;;;;;;20.64;56.94;97237.42;1677198;84;21449;-80
2021/08/30 11:02:58;;;;;;;3.80;2.17;;;;;;;20.30;57.42;97234.83;1700004;84;21410;-79
2021/08/30 11:05:28;;;;;;;2.15;1.90;;;;;;;20.01;55.39;97244.80;1645167;87;21060;-80
2021/08/30 11:07:55;;;;;;;3.62;1.98;;;;;;;19.74;56.89;97243.30;1644819;87;21039;-80
2021/08/30 11:10:25;;;;;;;5.62;1.80;;;;;;;19.43;56.78;97249.75;1645000;87;21067;-77
2021/08/30 11:12:52;;;;;;;4.90;1.80;;;;;;;19.20;58.75;97247.01;1645042;87;21430;-79
2021/08/30 11:15:19;;;;;;;3.92;1.50;;;;;;;18.99;59.50;97256.55;1703622;84;21368;-78
2021/08/30 11:17:45;;;;;;;2.50;1.47;;;;;;;18.99;60.37;97249.83;1756062;82;20973;-78
2021/08/30 11:20:18;;;;;;;1.92;1.30;;;;;;;19.04;61.13;97242.81;1737160;82;21028;-77
2021/08/30 11:22:55;;;;;;;1.75;1.40;;;;;;;19.15;62.11;97250.53;1699141;84;20983;-78
2021/08/30 11:25:22;;;;;;;5.03;2.17;;;;;;;19.24;62.76;97241.30;1725146;82;21020;-79
2021/08/30 11:27:49;;;;;;;3.87;2.75;;;;;;;19.32;63.19;97244.73;1699416;83;21173;-77
2021/08/30 11:30:19;;;;;;;4.97;4.03;;;;;;;19.39;63.04;97247.29;1738111;82;21465;-76
2021/08/30 11:32:50;;;;;;;1.57;1.30;;;;;;;19.48;63.36;97243.02;1689048;83;21084;-76
2021/08/30 11:35:16;;;;;;;2.00;1.52;;;;;;;19.55;62.06;97241.22;1699224;83;21039;-75
2021/08/30 11:37:43;;;;;;;2.12;1.77;;;;;;;19.64;63.79;97248.05;1704264;84;21041;-74
2021/08/30 11:40:12;;;;;;;3.00;1.40;;;;;;;19.57;61.25;97249.53;1705551;84;21017;-77
2021/08/30 11:42:39;;;;;;;1.85;1.60;;;;;;;19.67;61.95;97249.64;1705630;84;21030;-77
2021/08/30 11:45:10;;;;;;;3.37;1.72;;;;;;;19.78;60.41;97244.29;1705980;84;20969;-77
2021/08/30 11:47:38;;;;;;;1.92;1.55;;;;;;;19.92;61.49;97254.41;1702816;84;21439;-77